Terminal Aerodrome Forecast
Issued by NWS

Home | Current Version | Previous Version | Graphics & Text | Print | Product List | Glossary On
Versions: 1 2 3 4 5 6 7 8 9 10 11 12 13 14 15 16
000
FTUS43 KMPX 221100
TAFRWF
TAF
KRWF 221136Z 2212/2312 15013KT 4SM -RA BR OVC004
      TEMPO 2212/2216 OVC005
     FM230000 12008KT 3SM -RASN BR OVC003
     FM230300 06010KT 2SM -SN BR OVC003=

USA.gov is the U.S. government's official web portal to all federal, state and local government web resources and services.